createdAt,value
2018-07-30T00:04:17.933Z,21.7
2018-07-30T00:09:20.105Z,21.9
2018-07-30T00:14:22.573Z,22
2018-07-30T00:19:25.020Z,22.1
2018-07-30T00:24:27.480Z,22.3
2018-07-30T00:29:30.040Z,22.4
2018-07-30T00:34:32.419Z,22.5
2018-07-30T00:39:34.915Z,22.6
2018-07-30T00:44:37.335Z,22.7
2018-07-30T00:49:39.778Z,22.8
2018-07-30T00:54:42.246Z,22.8
2018-07-30T00:59:44.698Z,22.8
2018-07-30T01:04:47.165Z,22.8
2018-07-30T01:14:52.235Z,22.9
2018-07-30T01:19:54.836Z,22.9
2018-07-30T01:24:56.991Z,23
2018-07-30T01:29:59.524Z,22.9
2018-07-30T01:35:02.050Z,22.9
2018-07-30T01:40:04.367Z,22.9
2018-07-30T01:45:06.902Z,22.8
2018-07-30T01:50:10.250Z,22.8
2018-07-30T01:55:11.726Z,22.7
2018-07-30T02:00:14.200Z,22.7
2018-07-30T02:05:16.720Z,22.5
2018-07-30T02:10:19.258Z,22.3
2018-07-30T02:20:24.324Z,22
2018-07-30T02:25:26.547Z,21.9
2018-07-30T02:30:28.958Z,21.8
2018-07-30T02:35:31.444Z,21.7
2018-07-30T02:40:33.898Z,21.6
2018-07-30T02:45:36.322Z,21.6
2018-07-30T02:50:38.808Z,21.5
2018-07-30T02:55:41.253Z,21.3
2018-07-30T03:00:43.775Z,21.2
2018-07-30T03:05:46.265Z,21.1
2018-07-30T03:10:48.678Z,21
2018-07-30T03:15:51.095Z,21
2018-07-30T03:20:53.571Z,20.9
2018-07-30T03:25:55.996Z,20.8
2018-07-30T03:30:58.462Z,20.7
2018-07-30T03:36:00.965Z,20.7
2018-07-30T03:41:03.396Z,20.8
2018-07-30T03:46:05.816Z,20.7
2018-07-30T03:51:08.490Z,20.6
2018-07-30T03:56:10.749Z,20.6
2018-07-30T04:01:13.265Z,20.6
2018-07-30T04:06:15.893Z,20.6
2018-07-30T04:11:18.160Z,20.6
2018-07-30T04:16:20.590Z,20.7
2018-07-30T04:21:23.051Z,20.7
2018-07-30T04:26:25.496Z,20.8
2018-07-30T04:31:28.014Z,20.9
2018-07-30T04:36:30.440Z,21
2018-07-30T04:41:32.908Z,21.2
2018-07-30T04:46:35.324Z,21.5
2018-07-30T04:51:38.123Z,22
2018-07-30T04:56:40.310Z,22.3
2018-07-30T05:01:42.742Z,22.7
2018-07-30T05:06:45.270Z,23
2018-07-30T05:11:47.631Z,23.2
2018-07-30T05:16:50.265Z,23.4
2018-07-30T05:21:52.542Z,23.5
2018-07-30T05:31:57.557Z,24.3
2018-07-30T05:37:00.203Z,26.6
2018-07-30T05:42:02.403Z,30
2018-07-30T05:47:04.838Z,33.3
2018-07-30T05:52:07.805Z,35.4
2018-07-30T05:57:09.765Z,37.7
2018-07-30T06:02:12.330Z,39.3
2018-07-30T06:07:14.695Z,40.2
2018-07-30T06:12:17.164Z,41.4
2018-07-30T06:17:19.610Z,42.2
2018-07-30T06:22:22.103Z,43.1
2018-07-30T06:27:24.704Z,42.9
2018-07-30T06:32:26.996Z,43.7
2018-07-30T06:37:29.807Z,43.8
2018-07-30T06:42:32.089Z,43.8
2018-07-30T06:47:34.419Z,44.2
2018-07-30T06:52:37.004Z,44.8
2018-07-30T06:57:39.339Z,45.4
2018-07-30T07:02:42.223Z,46
2018-07-30T07:07:44.637Z,46.8
2018-07-30T07:12:46.990Z,45.8
2018-07-30T07:17:49.266Z,42.1
2018-07-30T07:22:51.741Z,41.2
2018-07-30T07:27:54.392Z,41.4
2018-07-30T07:33:01.750Z,43
2018-07-30T07:37:59.021Z,43.8
2018-07-30T07:43:01.668Z,42.2
2018-07-30T07:48:03.971Z,42
2018-07-30T07:53:06.581Z,43
2018-07-30T07:58:08.982Z,44
2018-07-30T08:03:11.352Z,45.6
2018-07-30T08:08:14.170Z,46.4
2018-07-30T08:13:16.483Z,45.9
2018-07-30T08:18:19.372Z,43.6
2018-07-30T08:23:21.207Z,43
2018-07-30T08:28:23.773Z,42.3
2018-07-30T08:33:26.207Z,42.2
2018-07-30T08:38:28.654Z,41.6
2018-07-30T08:43:31.026Z,41.9
2018-07-30T08:48:33.488Z,43.6
2018-07-30T08:53:35.970Z,43.6
2018-07-30T08:58:38.412Z,43.9
2018-07-30T09:03:41.064Z,44
2018-07-30T09:08:43.410Z,43.8
2018-07-30T09:13:46.023Z,42.4
2018-07-30T09:18:48.255Z,43.1
2018-07-30T09:23:50.785Z,43.2
2018-07-30T09:28:56.766Z,42.2
2018-07-30T09:33:55.766Z,39.8
2018-07-30T09:38:58.145Z,37.6
2018-07-30T09:44:00.581Z,36.3
2018-07-30T09:49:03.048Z,35.8
2018-07-30T09:59:07.991Z,35.3
2018-07-30T10:04:10.420Z,35
2018-07-30T10:09:12.866Z,34.6
2018-07-30T10:14:15.405Z,34.4
2018-07-30T10:19:17.841Z,33.8
2018-07-30T10:24:20.480Z,33.3
2018-07-30T10:29:23.052Z,33.2
2018-07-30T10:34:25.300Z,33
2018-07-30T10:39:27.635Z,32.6
2018-07-30T10:44:31.023Z,32.3
2018-07-30T10:49:35.350Z,32.4
2018-07-30T10:54:35.012Z,32.8
2018-07-30T10:59:37.462Z,33
2018-07-30T11:04:40.320Z,33.2
2018-07-30T11:09:42.669Z,33.2
2018-07-30T11:14:44.923Z,33.4
2018-07-30T11:19:47.540Z,33.7
2018-07-30T11:24:49.782Z,33.8
2018-07-30T11:29:52.219Z,33.8
2018-07-30T11:34:54.687Z,33.9
2018-07-30T11:39:57.391Z,34.2
2018-07-30T11:45:00.077Z,34.4
2018-07-30T11:50:02.494Z,34.4
2018-07-30T11:55:04.702Z,34.3
2018-07-30T12:00:07.391Z,34.1
2018-07-30T12:05:09.767Z,34.1
2018-07-30T12:10:11.896Z,34.2
2018-07-30T12:15:14.377Z,34.6
2018-07-30T12:20:18.217Z,34.6
2018-07-30T12:25:19.319Z,34.6
2018-07-30T12:30:22.115Z,34.1
2018-07-30T12:35:24.542Z,33.8
2018-07-30T12:40:26.872Z,33.6
2018-07-30T12:45:29.148Z,33.8
2018-07-30T12:50:31.896Z,34.2
2018-07-30T12:55:34.537Z,34.4
2018-07-30T13:00:36.516Z,34.4
2018-07-30T13:05:39.040Z,34.4
2018-07-30T13:10:41.693Z,34.3
2018-07-30T13:15:43.947Z,34.4
2018-07-30T13:20:46.644Z,34.6
2018-07-30T13:25:48.991Z,34.8
2018-07-30T13:30:51.383Z,35
2018-07-30T13:35:53.800Z,35
2018-07-30T13:40:56.415Z,34.9
2018-07-30T13:45:58.690Z,34.6
2018-07-30T13:51:01.241Z,34.4
2018-07-30T13:56:03.676Z,34.2
2018-07-30T14:01:06.141Z,34.1
2018-07-30T14:11:11.112Z,34.6
2018-07-30T14:16:14.116Z,35
2018-07-30T14:21:15.924Z,35.5
2018-07-30T14:26:18.339Z,35.6
2018-07-30T14:31:20.864Z,35.8
2018-07-30T14:36:23.660Z,36
2018-07-30T14:41:25.690Z,36.1
2018-07-30T14:46:28.183Z,36.3
2018-07-30T14:51:30.710Z,36.1
2018-07-30T14:56:33.079Z,35.9
2018-07-30T15:01:35.557Z,35.8
2018-07-30T15:06:38.079Z,35.7
2018-07-30T15:11:40.466Z,35.8
2018-07-30T15:16:43.279Z,35.7
2018-07-30T15:21:45.411Z,35.4
2018-07-30T15:26:47.851Z,35.2
2018-07-30T15:31:50.303Z,35
2018-07-30T15:36:52.939Z,34.9
2018-07-30T15:41:55.301Z,34.6
2018-07-30T15:46:57.688Z,34.7
2018-07-30T15:52:00.153Z,34.7
2018-07-30T15:57:02.732Z,34.7
2018-07-30T16:02:05.063Z,34.6
2018-07-30T16:07:07.807Z,34.4
2018-07-30T16:12:10.095Z,34.1
2018-07-30T16:17:12.473Z,33.9
2018-07-30T16:22:14.921Z,33.6
2018-07-30T16:27:17.505Z,33.5
2018-07-30T16:32:19.854Z,33.3
2018-07-30T16:37:22.279Z,33.1
2018-07-30T16:42:24.758Z,32.9
2018-07-30T16:47:27.197Z,32.4
2018-07-30T16:52:29.839Z,31.9
2018-07-30T16:57:32.259Z,31.6
2018-07-30T17:02:34.701Z,31.7
2018-07-30T17:07:37.028Z,31.7
2018-07-30T17:12:39.584Z,31.7
2018-07-30T17:17:41.974Z,31.7
2018-07-30T17:22:44.612Z,31.4
2018-07-30T17:27:46.912Z,31.2
2018-07-30T17:32:49.422Z,31.1
2018-07-30T17:37:51.787Z,30.8
2018-07-30T17:42:54.490Z,30.7
2018-07-30T17:47:56.762Z,30.5
2018-07-30T17:52:59.163Z,30.4
2018-07-30T17:58:01.634Z,30.2
2018-07-30T18:03:04.176Z,29.9
2018-07-30T18:08:06.567Z,29.7
2018-07-30T18:13:09.104Z,29.5
2018-07-30T18:18:11.537Z,29.2
2018-07-30T18:23:14.046Z,28.9
2018-07-30T18:28:16.580Z,28.7
2018-07-30T18:33:18.913Z,28.3
2018-07-30T18:38:21.351Z,28
2018-07-30T18:43:23.950Z,27.6
2018-07-30T18:48:26.407Z,27.1
2018-07-30T18:53:28.873Z,26.7
2018-07-30T18:58:31.233Z,26.3
2018-07-30T19:03:33.622Z,26
2018-07-30T19:08:36.172Z,25.7
2018-07-30T19:13:38.543Z,25.4
2018-07-30T19:18:41.003Z,25.2
2018-07-30T19:23:43.474Z,24.9
2018-07-30T19:28:45.964Z,24.7
2018-07-30T19:33:48.368Z,24.5
2018-07-30T19:38:51.005Z,24.3
2018-07-30T19:43:53.369Z,24.1
2018-07-30T19:48:55.780Z,24
2018-07-30T19:53:58.252Z,23.9
2018-07-30T19:59:01.408Z,23.8
2018-07-30T20:04:03.235Z,23.7
2018-07-30T20:09:05.553Z,23.6
2018-07-30T20:14:08.300Z,23.5
2018-07-30T20:19:10.483Z,23.3
2018-07-30T20:24:13.692Z,23.2
2018-07-30T20:29:16.047Z,23.2
2018-07-30T20:34:17.916Z,23.1
2018-07-30T20:39:20.675Z,23.1
2018-07-30T20:44:22.882Z,23.1
2018-07-30T20:49:25.336Z,23
2018-07-30T20:54:27.969Z,23
2018-07-30T20:59:30.156Z,23
2018-07-30T21:04:32.670Z,23
2018-07-30T21:09:35.154Z,22.9
2018-07-30T21:14:37.595Z,22.9
2018-07-30T21:19:40.502Z,22.8
2018-07-30T21:24:42.557Z,22.8
2018-07-30T21:29:45.200Z,22.7
2018-07-30T21:34:47.667Z,22.6
2018-07-30T21:39:49.945Z,22.5
2018-07-30T21:44:52.383Z,22.3
2018-07-30T21:49:55.566Z,22.2
2018-07-30T21:54:57.196Z,22.1
2018-07-30T21:59:59.871Z,22
2018-07-30T22:05:02.334Z,21.9
2018-07-30T22:10:04.600Z,21.9
2018-07-30T22:15:07.151Z,21.7
2018-07-30T22:20:09.629Z,21.6
2018-07-30T22:25:12.009Z,21.6
2018-07-30T22:30:14.443Z,21.6
2018-07-30T22:35:16.860Z,21.6
2018-07-30T22:40:19.513Z,21.6
2018-07-30T22:45:21.966Z,21.6
2018-07-30T22:50:24.627Z,21.7
2018-07-30T22:55:26.859Z,21.6
2018-07-30T23:00:29.352Z,21.6
2018-07-30T23:05:33.180Z,21.6
2018-07-30T23:10:34.103Z,21.6
2018-07-30T23:15:36.580Z,21.5
2018-07-30T23:20:39.149Z,21.5
2018-07-30T23:25:41.720Z,21.5
2018-07-30T23:30:44.019Z,21.4
2018-07-30T23:35:46.389Z,21.3
2018-07-30T23:40:49.077Z,21.3
2018-07-30T23:45:51.377Z,21.3
2018-07-30T23:50:53.799Z,21.2
2018-07-30T23:55:56.657Z,21.2
